Time;durP1;ratioP1;P1;durP2;ratioP2;P2;SDS_P1;SDS_P2;PMS_P1;PMS_P2;Temp;Humidity;BMP_temperature;BMP_pressure;BME280_temperature;BME280_humidity;BME280_pressure;Samples;Min_cycle;Max_cycle;Signal;HPM_P1;HPM_P2
2022/02/19 00:01:20;;;;;;;19.17;3.10;;;;;;;;;;5007679;28;20064;-63
2022/02/19 00:03:50;;;;;;;10.13;2.53;;;;;;;;;;5003560;28;20037;-63
2022/02/19 00:06:16;;;;;;;20.15;2.78;;;;;;;;;;4986403;28;20048;-63
2022/02/19 00:08:42;;;;;;;31.77;3.25;;;;;;;;;;4992404;28;20384;-61
2022/02/19 00:11:07;;;;;;;24.77;5.10;;;;;;;;;;4990034;28;20021;-60
2022/02/19 00:13:37;;;;;;;40.58;5.20;;;;;;;;;;4987985;28;20122;-61
2022/02/19 00:16:05;;;;;;;28.85;3.60;;;;;;;;;;4999095;28;20099;-63
2022/02/19 00:18:34;;;;;;;25.92;4.93;;;;;;;;;;4987708;28;20033;-60
2022/02/19 00:21:02;;;;;;;25.30;3.95;;;;;;;;;;4983334;28;20033;-61
2022/02/19 00:23:30;;;;;;;29.20;5.20;;;;;;;;;;5003122;28;20030;-62
2022/02/19 00:26:01;;;;;;;34.63;4.07;;;;;;;;;;5001252;28;20214;-61
2022/02/19 00:28:29;;;;;;;18.27;2.45;;;;;;;;;;4999523;28;20472;-58
2022/02/19 00:30:56;;;;;;;22.60;3.47;;;;;;;;;;5003922;28;20061;-58
2022/02/19 00:33:27;;;;;;;27.52;3.80;;;;;;;;;;4987432;28;20042;-61
2022/02/19 00:35:53;;;;;;;28.15;3.50;;;;;;;;;;5006065;28;20450;-60
2022/02/19 00:38:23;;;;;;;17.58;3.03;;;;;;;;;;5005141;28;21139;-59
2022/02/19 00:40:49;;;;;;;18.95;2.90;;;;;;;;;;5007074;28;20042;-58
2022/02/19 00:43:20;;;;;;;22.25;2.90;;;;;;;;;;4989466;28;20061;-61
2022/02/19 00:45:49;;;;;;;15.32;2.17;;;;;;;;;;5008619;28;20626;-61
2022/02/19 00:48:17;;;;;;;21.85;2.35;;;;;;;;;;5011820;28;20049;-60
2022/02/19 00:50:43;;;;;;;20.35;2.75;;;;;;;;;;5010190;28;20029;-61
2022/02/19 00:53:12;;;;;;;18.52;1.90;;;;;;;;;;4995128;28;20111;-60
2022/02/19 00:55:40;;;;;;;9.23;1.50;;;;;;;;;;5007820;28;20357;-58
2022/02/19 00:58:06;;;;;;;18.48;3.20;;;;;;;;;;5012013;28;20033;-59
2022/02/19 01:00:32;;;;;;;21.50;1.77;;;;;;;;;;4992796;28;20053;-61
2022/02/19 01:02:57;;;;;;;9.60;1.85;;;;;;;;;;5004849;28;20029;-60
2022/02/19 01:05:23;;;;;;;12.25;1.75;;;;;;;;;;5010410;28;20033;-60
2022/02/19 01:07:51;;;;;;;23.23;2.53;;;;;;;;;;5005285;28;20037;-59
2022/02/19 01:10:22;;;;;;;17.20;2.05;;;;;;;;;;5010202;28;20106;-60
2022/02/19 01:12:49;;;;;;;14.32;2.58;;;;;;;;;;5009310;28;20037;-61
2022/02/19 01:15:17;;;;;;;15.00;2.53;;;;;;;;;;4990560;28;21314;-59
2022/02/19 01:17:43;;;;;;;10.82;1.80;;;;;;;;;;4993048;28;20554;-59
2022/02/19 01:20:09;;;;;;;13.52;2.47;;;;;;;;;;5008723;28;21846;-60
2022/02/19 01:22:35;;;;;;;15.00;2.03;;;;;;;;;;5004512;28;20029;-59
2022/02/19 01:25:02;;;;;;;14.50;2.10;;;;;;;;;;5006278;28;20061;-60
2022/02/19 01:27:30;;;;;;;20.52;2.70;;;;;;;;;;4986943;28;20167;-60
2022/02/19 01:29:56;;;;;;;11.88;2.22;;;;;;;;;;5003881;28;20125;-60
2022/02/19 01:32:21;;;;;;;55.15;2.75;;;;;;;;;;4990762;28;20106;-61
2022/02/19 01:34:49;;;;;;;15.57;1.40;;;;;;;;;;5006722;28;20037;-63
2022/02/19 01:37:17;;;;;;;3.08;0.25;;;;;;;;;;5004728;28;20402;-60
2022/02/19 01:39:44;;;;;;;2.45;0.70;;;;;;;;;;4966203;28;20040;-64
2022/02/19 01:42:12;;;;;;;6.22;0.75;;;;;;;;;;4987900;28;20071;-60
2022/02/19 01:44:41;;;;;;;4.28;1.42;;;;;;;;;;4973950;28;20373;-61
2022/02/19 01:47:06;;;;;;;12.20;1.05;;;;;;;;;;5006570;28;20037;-61
2022/02/19 01:49:32;;;;;;;6.55;1.60;;;;;;;;;;4989289;28;20033;-60
2022/02/19 01:52:00;;;;;;;6.88;0.90;;;;;;;;;;4988168;28;20084;-63
2022/02/19 01:54:25;;;;;;;8.82;0.80;;;;;;;;;;5004262;28;20037;-59
2022/02/19 01:56:54;;;;;;;4.55;0.65;;;;;;;;;;5003311;28;20061;-62
2022/02/19 01:59:22;;;;;;;21.55;1.25;;;;;;;;;;4986389;28;20133;-59
2022/02/19 02:01:47;;;;;;;14.38;1.20;;;;;;;;;;5001940;28;20649;-60
2022/02/19 02:04:13;;;;;;;15.55;1.67;;;;;;;;;;5007402;28;21667;-62
2022/02/19 02:06:46;;;;;;;21.15;1.70;;;;;;;;;;5003436;28;20044;-60
2022/02/19 02:09:17;;;;;;;5.57;0.88;;;;;;;;;;5009075;28;20090;-60
2022/02/19 02:11:45;;;;;;;4.05;0.73;;;;;;;;;;5008497;28;20037;-61
2022/02/19 02:14:11;;;;;;;16.42;1.40;;;;;;;;;;4976752;28;20163;-59
2022/02/19 02:16:38;;;;;;;12.73;1.25;;;;;;;;;;5004299;28;20128;-63
2022/02/19 02:19:04;;;;;;;4.70;1.42;;;;;;;;;;4983939;28;20054;-57
2022/02/19 02:21:30;;;;;;;4.68;1.02;;;;;;;;;;5008809;28;20063;-60
2022/02/19 02:23:57;;;;;;;4.07;0.52;;;;;;;;;;5005355;28;20041;-61
2022/02/19 02:26:24;;;;;;;8.48;0.60;;;;;;;;;;4988529;28;20042;-58
2022/02/19 02:28:49;;;;;;;2.05;0.28;;;;;;;;;;5000914;28;20047;-63
2022/02/19 02:31:15;;;;;;;0.80;0.03;;;;;;;;;;5002915;28;20450;-59
2022/02/19 02:33:41;;;;;;;0.20;0.10;;;;;;;;;;5007213;28;20116;-60
2022/02/19 02:36:09;;;;;;;4.47;0.40;;;;;;;;;;5005361;28;20029;-59
2022/02/19 02:38:35;;;;;;;0.35;0.00;;;;;;;;;;4982851;28;20033;-59
2022/02/19 02:41:05;;;;;;;0.80;0.10;;;;;;;;;;4999347;28;20696;-60
2022/02/19 02:43:31;;;;;;;1.50;0.25;;;;;;;;;;4998817;28;20037;-60
2022/02/19 02:46:01;;;;;;;3.40;0.30;;;;;;;;;;5002327;28;21899;-60
2022/02/19 02:48:27;;;;;;;2.28;0.30;;;;;;;;;;4990125;28;20083;-62
2022/02/19 02:50:56;;;;;;;2.95;0.50;;;;;;;;;;4998609;28;20049;-62
2022/02/19 02:53:26;;;;;;;1.27;0.68;;;;;;;;;;5001229;28;20061;-63
2022/02/19 02:55:51;;;;;;;7.80;0.68;;;;;;;;;;5001722;28;20086;-60
2022/02/19 02:58:17;;;;;;;6.82;0.70;;;;;;;;;;5001261;28;20037;-62
2022/02/19 03:00:45;;;;;;;0.90;0.30;;;;;;;;;;4981426;28;20073;-58
2022/02/19 03:03:17;;;;;;;1.40;0.40;;;;;;;;;;5002364;28;20040;-60
2022/02/19 03:05:47;;;;;;;0.75;0.10;;;;;;;;;;5001097;28;20036;-60
2022/02/19 03:08:15;;;;;;;2.92;0.30;;;;;;;;;;4985401;28;20025;-59
2022/02/19 03:10:43;;;;;;;1.60;0.25;;;;;;;;;;5002129;28;20037;-62
2022/02/19 03:13:08;;;;;;;4.47;0.32;;;;;;;;;;4985138;28;20597;-62
2022/02/19 03:15:36;;;;;;;3.67;0.80;;;;;;;;;;5002188;28;20033;-60
2022/02/19 03:18:07;;;;;;;4.82;0.70;;;;;;;;;;4968332;28;20088;-59
2022/02/19 03:20:39;;;;;;;3.65;0.60;;;;;;;;;;4982840;28;20037;-61
2022/02/19 03:23:04;;;;;;;3.80;0.98;;;;;;;;;;5002364;28;20033;-61
2022/02/19 03:25:32;;;;;;;4.25;1.05;;;;;;;;;;4984771;28;20044;-59
2022/02/19 03:28:00;;;;;;;11.05;0.80;;;;;;;;;;4977761;28;20088;-59
2022/02/19 03:30:26;;;;;;;17.70;1.25;;;;;;;;;;5001486;28;20041;-62
2022/02/19 03:32:51;;;;;;;3.97;0.60;;;;;;;;;;5002311;28;20033;-60
2022/02/19 03:35:17;;;;;;;11.43;1.10;;;;;;;;;;4986028;28;20038;-60
2022/02/19 03:37:45;;;;;;;10.60;0.93;;;;;;;;;;5005552;28;20041;-60
2022/02/19 03:40:13;;;;;;;4.82;1.13;;;;;;;;;;4990510;28;21372;-61
2022/02/19 03:42:43;;;;;;;2.22;0.35;;;;;;;;;;5003852;28;20032;-60
2022/02/19 03:45:14;;;;;;;9.88;0.68;;;;;;;;;;5001905;28;20028;-59
2022/02/19 03:47:44;;;;;;;5.68;0.52;;;;;;;;;;5000164;28;20030;-59
2022/02/19 03:50:17;;;;;;;1.60;0.55;;;;;;;;;;4982138;28;20250;-62
2022/02/19 03:52:43;;;;;;;9.13;0.65;;;;;;;;;;4992657;28;20038;-60
2022/02/19 03:55:09;;;;;;;7.38;0.90;;;;;;;;;;4983210;28;20033;-60
2022/02/19 03:57:35;;;;;;;3.22;0.45;;;;;;;;;;5002755;28;20091;-60
2022/02/19 04:00:01;;;;;;;4.43;1.00;;;;;;;;;;4999248;28;20057;-59
2022/02/19 04:02:29;;;;;;;13.13;1.58;;;;;;;;;;4998041;28;20868;-60
2022/02/19 04:04:54;;;;;;;5.47;1.13;;;;;;;;;;4998295;28;20057;-61
2022/02/19 04:07:22;;;;;;;5.25;0.45;;;;;;;;;;5000296;28;20041;-62
2022/02/19 04:09:50;;;;;;;9.05;0.93;;;;;;;;;;4968359;28;20335;-60
2022/02/19 04:12:18;;;;;;;6.57;0.25;;;;;;;;;;5002490;28;20392;-61
2022/02/19 04:14:46;;;;;;;3.63;0.88;;;;;;;;;;4986723;28;20292;-59
2022/02/19 04:17:16;;;;;;;12.05;1.15;;;;;;;;;;5007689;28;20084;-61
2022/02/19 04:19:44;;;;;;;4.35;0.75;;;;;;;;;;5004459;28;20037;-63
2022/02/19 04:22:16;;;;;;;3.58;0.93;;;;;;;;;;5005557;28;20649;-60
2022/02/19 04:24:41;;;;;;;5.80;1.05;;;;;;;;;;4990286;28;20041;-60
2022/02/19 04:27:06;;;;;;;8.50;1.65;;;;;;;;;;5003407;28;20414;-61
2022/02/19 04:29:39;;;;;;;6.75;1.10;;;;;;;;;;5007073;28;20068;-60
2022/02/19 04:32:05;;;;;;;0.93;0.52;;;;;;;;;;5006976;28;20550;-59
2022/02/19 04:34:30;;;;;;;0.63;0.25;;;;;;;;;;5004487;28;20041;-60
2022/02/19 04:36:56;;;;;;;2.50;0.57;;;;;;;;;;4991258;28;20056;-59
2022/02/19 04:39:22;;;;;;;5.95;0.60;;;;;;;;;;5000536;28;20042;-63
2022/02/19 04:41:54;;;;;;;10.13;1.23;;;;;;;;;;4985564;28;20076;-60
2022/02/19 04:44:20;;;;;;;2.15;0.25;;;;;;;;;;4982066;28;20033;-59
2022/02/19 04:46:47;;;;;;;7.72;0.82;;;;;;;;;;5006702;28;20033;-59
2022/02/19 04:49:15;;;;;;;9.55;1.27;;;;;;;;;;4991019;28;20710;-59
2022/02/19 04:51:43;;;;;;;6.63;0.90;;;;;;;;;;5008161;28;20021;-59
2022/02/19 04:54:11;;;;;;;2.17;0.52;;;;;;;;;;5004964;28;20109;-60
2022/02/19 04:56:39;;;;;;;8.77;1.58;;;;;;;;;;5008891;28;20043;-61
2022/02/19 04:59:05;;;;;;;10.18;1.40;;;;;;;;;;4989394;28;20045;-59
2022/02/19 05:01:33;;;;;;;4.55;1.00;;;;;;;;;;4988502;28;20052;-58
2022/02/19 05:04:02;;;;;;;20.20;1.25;;;;;;;;;;4999012;28;20088;-60
2022/02/19 05:06:27;;;;;;;10.77;1.50;;;;;;;;;;5007547;28;20037;-60
2022/02/19 05:08:55;;;;;;;8.55;1.23;;;;;;;;;;5003439;28;20041;-61
2022/02/19 05:11:23;;;;;;;17.17;1.33;;;;;;;;;;4985952;28;20026;-61
2022/02/19 05:13:48;;;;;;;8.98;1.23;;;;;;;;;;4970349;28;20041;-60
2022/02/19 05:16:16;;;;;;;12.18;1.80;;;;;;;;;;5007331;28;20446;-60
2022/02/19 05:18:45;;;;;;;6.07;1.45;;;;;;;;;;5004091;28;20047;-62
2022/02/19 05:21:13;;;;;;;21.70;2.83;;;;;;;;;;4983916;28;20021;-62
2022/02/19 05:23:41;;;;;;;8.43;1.48;;;;;;;;;;5004711;28;20727;-61
2022/02/19 05:26:08;;;;;;;5.63;1.27;;;;;;;;;;5003101;28;20103;-59
2022/02/19 05:28:36;;;;;;;4.80;0.95;;;;;;;;;;4956275;28;20029;-59
2022/02/19 05:31:03;;;;;;;5.00;1.30;;;;;;;;;;5004699;28;20049;-62
2022/02/19 05:33:32;;;;;;;12.38;1.27;;;;;;;;;;4972830;28;20032;-60
2022/02/19 05:35:58;;;;;;;4.32;0.88;;;;;;;;;;4986293;28;20041;-62
2022/02/19 05:38:23;;;;;;;12.73;2.00;;;;;;;;;;4984947;28;20385;-60
2022/02/19 05:40:49;;;;;;;6.32;1.20;;;;;;;;;;4990485;28;20103;-60
2022/02/19 05:43:16;;;;;;;9.25;1.60;;;;;;;;;;4975775;28;20033;-60
2022/02/19 05:45:46;;;;;;;9.43;1.52;;;;;;;;;;4987710;28;20924;-59
2022/02/19 05:48:14;;;;;;;10.02;1.40;;;;;;;;;;4989883;28;20072;-59
2022/02/19 05:50:43;;;;;;;25.17;2.00;;;;;;;;;;4999391;28;20981;-59
2022/02/19 05:53:11;;;;;;;10.35;1.90;;;;;;;;;;4973598;28;20060;-60
2022/02/19 05:55:39;;;;;;;22.02;3.10;;;;;;;;;;5002164;28;20044;-59
2022/02/19 05:58:04;;;;;;;20.27;2.50;;;;;;;;;;4985316;28;20037;-59
2022/02/19 06:00:32;;;;;;;11.05;2.50;;;;;;;;;;4979425;28;20744;-59
2022/02/19 06:03:02;;;;;;;13.93;1.90;;;;;;;;;;4963957;28;20032;-61
2022/02/19 06:05:30;;;;;;;13.85;2.17;;;;;;;;;;4981183;28;20095;-60
2022/02/19 06:07:55;;;;;;;21.05;2.90;;;;;;;;;;4998520;28;20040;-59
2022/02/19 06:10:21;;;;;;;21.17;2.40;;;;;;;;;;4985898;28;20108;-62
2022/02/19 06:12:54;;;;;;;9.45;2.00;;;;;;;;;;4990499;28;20115;-58
2022/02/19 06:15:25;;;;;;;29.77;2.85;;;;;;;;;;4989485;28;20494;-58
2022/02/19 06:17:51;;;;;;;13.57;2.13;;;;;;;;;;4990344;28;20038;-59
2022/02/19 06:20:16;;;;;;;14.80;3.40;;;;;;;;;;5007807;28;20373;-59
2022/02/19 06:22:41;;;;;;;24.40;2.25;;;;;;;;;;5003953;28;20519;-58
2022/02/19 06:25:12;;;;;;;16.35;2.15;;;;;;;;;;4992760;28;20104;-58
2022/02/19 06:27:43;;;;;;;22.67;2.72;;;;;;;;;;4989201;28;20468;-58
2022/02/19 06:30:09;;;;;;;15.57;2.65;;;;;;;;;;4988182;28;20124;-58
2022/02/19 06:32:37;;;;;;;10.98;2.72;;;;;;;;;;4972524;28;20037;-58
2022/02/19 06:35:07;;;;;;;15.25;2.38;;;;;;;;;;5004273;28;20127;-59
2022/02/19 06:37:45;;;;;;;15.43;2.72;;;;;;;;;;5002244;28;20807;-59
2022/02/19 06:40:14;;;;;;;14.38;2.08;;;;;;;;;;5008103;28;20529;-59
2022/02/19 06:42:40;;;;;;;21.52;2.58;;;;;;;;;;5005250;28;20036;-59
2022/02/19 06:45:06;;;;;;;23.02;2.22;;;;;;;;;;5005855;28;20640;-60
2022/02/19 06:47:34;;;;;;;35.50;2.92;;;;;;;;;;4990143;28;20048;-60
2022/02/19 06:50:05;;;;;;;13.15;2.17;;;;;;;;;;5006761;28;20028;-58
2022/02/19 06:52:36;;;;;;;16.90;3.03;;;;;;;;;;5007610;28;20664;-60
2022/02/19 06:55:04;;;;;;;13.88;2.55;;;;;;;;;;5006738;28;20036;-60
2022/02/19 06:57:36;;;;;;;14.55;2.00;;;;;;;;;;4987368;28;20037;-59
2022/02/19 07:00:03;;;;;;;18.00;2.60;;;;;;;;;;4991458;28;20045;-59
2022/02/19 07:02:31;;;;;;;13.48;2.42;;;;;;;;;;5006029;28;20808;-59
2022/02/19 07:04:58;;;;;;;12.18;1.45;;;;;;;;;;5003240;28;20144;-60
2022/02/19 07:07:25;;;;;;;20.23;2.42;;;;;;;;;;4989724;28;20035;-61
2022/02/19 07:09:58;;;;;;;13.38;1.95;;;;;;;;;;5005836;28;20139;-60
2022/02/19 07:12:24;;;;;;;18.65;2.85;;;;;;;;;;5002542;28;20033;-61
2022/02/19 07:14:52;;;;;;;18.60;2.42;;;;;;;;;;5005299;28;20044;-59
2022/02/19 07:17:17;;;;;;;19.63;4.13;;;;;;;;;;5006602;28;20037;-60
2022/02/19 07:19:49;;;;;;;13.38;1.80;;;;;;;;;;5006366;28;20119;-59
2022/02/19 07:22:14;;;;;;;11.63;1.95;;;;;;;;;;5007411;28;20393;-62
2022/02/19 07:24:40;;;;;;;31.55;3.03;;;;;;;;;;4970125;28;20026;-60
2022/02/19 07:27:15;;;;;;;20.30;2.95;;;;;;;;;;5004582;28;20045;-59
2022/02/19 07:29:43;;;;;;;21.10;1.73;;;;;;;;;;4971165;28;20053;-59
2022/02/19 07:32:12;;;;;;;14.30;2.50;;;;;;;;;;5006179;28;20037;-58
2022/02/19 07:34:41;;;;;;;11.13;1.60;;;;;;;;;;4984815;28;20089;-59
2022/02/19 07:37:09;;;;;;;11.75;1.73;;;;;;;;;;4981597;28;20725;-60
2022/02/19 07:39:34;;;;;;;19.02;1.83;;;;;;;;;;4987046;28;20033;-58
2022/02/19 07:42:05;;;;;;;15.93;2.13;;;;;;;;;;5005585;28;20041;-59
2022/02/19 07:44:30;;;;;;;9.30;1.88;;;;;;;;;;4985937;28;20034;-58
2022/02/19 07:46:56;;;;;;;21.20;2.47;;;;;;;;;;5004626;28;20033;-59
2022/02/19 08:00:26;;;;;;;3.80;0.60;;;;;;;;;;5001688;28;20064;-60
2022/02/19 08:02:55;;;;;;;9.27;1.20;;;;;;;;;;5004004;28;20225;-58
2022/02/19 08:05:25;;;;;;;2.85;1.20;;;;;;;;;;5002416;28;20040;-59
2022/02/19 08:07:50;;;;;;;17.20;2.50;;;;;;;;;;5001974;28;20081;-58
2022/02/19 08:10:18;;;;;;;14.32;1.65;;;;;;;;;;4986695;28;21615;-61
2022/02/19 08:12:45;;;;;;;14.45;1.75;;;;;;;;;;4968438;28;20038;-60
2022/02/19 08:15:11;;;;;;;12.65;1.50;;;;;;;;;;5005051;28;20021;-57
2022/02/19 08:17:36;;;;;;;17.40;2.05;;;;;;;;;;5003023;28;20044;-58
2022/02/19 08:20:03;;;;;;;22.73;2.35;;;;;;;;;;5004772;28;20584;-60
2022/02/19 08:22:31;;;;;;;17.58;2.65;;;;;;;;;;5001864;28;20068;-59
2022/02/19 08:24:58;;;;;;;14.65;2.08;;;;;;;;;;4986897;28;20485;-59
2022/02/19 08:27:26;;;;;;;19.05;2.70;;;;;;;;;;5003723;28;20044;-58
2022/02/19 08:29:56;;;;;;;20.45;2.67;;;;;;;;;;4986858;28;20279;-59
2022/02/19 08:32:22;;;;;;;15.30;2.15;;;;;;;;;;4999571;28;20042;-59
2022/02/19 08:34:49;;;;;;;15.35;2.20;;;;;;;;;;5003642;28;20050;-59
2022/02/19 08:37:17;;;;;;;8.82;1.58;;;;;;;;;;4985740;28;20305;-61
2022/02/19 08:39:44;;;;;;;8.30;1.67;;;;;;;;;;5002579;28;20029;-60
2022/02/19 08:42:10;;;;;;;8.20;1.05;;;;;;;;;;5003601;28;20034;-59
2022/02/19 08:44:38;;;;;;;11.98;1.35;;;;;;;;;;5004775;28;20532;-59
2022/02/19 08:47:04;;;;;;;12.70;1.27;;;;;;;;;;5001300;28;20029;-60
2022/02/19 08:49:31;;;;;;;11.10;1.85;;;;;;;;;;5000137;28;20037;-60
2022/02/19 08:51:59;;;;;;;7.35;1.38;;;;;;;;;;4986589;28;20798;-61
2022/02/19 08:54:34;;;;;;;6.70;1.33;;;;;;;;;;5003662;28;20115;-61
2022/02/19 08:57:02;;;;;;;7.22;1.73;;;;;;;;;;4984789;28;20067;-60
2022/02/19 08:59:31;;;;;;;11.07;1.73;;;;;;;;;;5002251;28;20036;-60
2022/02/19 09:01:58;;;;;;;12.73;1.58;;;;;;;;;;5005684;28;20132;-59
2022/02/19 09:04:24;;;;;;;8.68;1.92;;;;;;;;;;4988402;28;20059;-60
2022/02/19 09:06:49;;;;;;;14.05;2.30;;;;;;;;;;5009133;28;20030;-60
2022/02/19 09:09:18;;;;;;;15.77;1.80;;;;;;;;;;4993149;28;20118;-60
2022/02/19 09:11:43;;;;;;;22.88;2.55;;;;;;;;;;4991270;28;20572;-60
2022/02/19 09:14:14;;;;;;;19.00;2.33;;;;;;;;;;5008561;28;20040;-60
2022/02/19 09:16:39;;;;;;;20.40;2.70;;;;;;;;;;5005047;28;20112;-60
2022/02/19 09:19:07;;;;;;;19.20;2.65;;;;;;;;;;5006161;28;20044;-58
2022/02/19 09:21:33;;;;;;;11.50;1.45;;;;;;;;;;5009175;28;20025;-59
2022/02/19 09:24:03;;;;;;;10.60;1.63;;;;;;;;;;4975309;28;20043;-59
2022/02/19 09:26:31;;;;;;;14.80;1.90;;;;;;;;;;5003018;28;20038;-59
2022/02/19 09:29:00;;;;;;;14.02;2.17;;;;;;;;;;4989106;28;20128;-60
2022/02/19 09:31:30;;;;;;;17.52;2.15;;;;;;;;;;5002438;28;20613;-59
2022/02/19 09:33:58;;;;;;;22.10;2.97;;;;;;;;;;4974766;28;20040;-60
2022/02/19 09:36:26;;;;;;;18.83;2.78;;;;;;;;;;4993002;28;20063;-60
2022/02/19 09:38:54;;;;;;;16.80;2.08;;;;;;;;;;5006561;28;20053;-60
2022/02/19 09:41:22;;;;;;;19.40;3.03;;;;;;;;;;5002602;28;20037;-58
2022/02/19 09:43:49;;;;;;;13.48;2.47;;;;;;;;;;5006205;28;20030;-59
2022/02/19 09:46:17;;;;;;;12.68;2.38;;;;;;;;;;5005503;28;20029;-59
2022/02/19 09:48:46;;;;;;;17.98;2.90;;;;;;;;;;5002993;28;20033;-61
2022/02/19 09:51:16;;;;;;;22.60;2.75;;;;;;;;;;5006209;28;20039;-60
2022/02/19 09:53:42;;;;;;;26.60;2.22;;;;;;;;;;5008273;28;20069;-60
2022/02/19 09:56:07;;;;;;;19.92;3.50;;;;;;;;;;5001030;28;20139;-59
2022/02/19 09:58:36;;;;;;;22.63;2.63;;;;;;;;;;5006548;28;20037;-59
2022/02/19 10:01:20;;;;;;;18.15;2.22;;;;;;;;;;4987602;28;20659;-61
2022/02/19 10:03:47;;;;;;;20.50;2.42;;;;;;;;;;5009110;28;20022;-59
2022/02/19 10:06:14;;;;;;;14.82;1.92;;;;;;;;;;5006714;28;20109;-60
2022/02/19 10:08:42;;;;;;;15.93;2.80;;;;;;;;;;5007700;28;20084;-60
2022/02/19 10:11:11;;;;;;;19.42;2.50;;;;;;;;;;5007065;28;20529;-60
2022/02/19 10:13:40;;;;;;;9.38;1.48;;;;;;;;;;5007992;28;20064;-60
2022/02/19 10:16:07;;;;;;;16.40;2.55;;;;;;;;;;5005966;28;20029;-60
2022/02/19 10:18:33;;;;;;;14.48;1.67;;;;;;;;;;4985150;28;20758;-60
2022/02/19 10:21:16;;;;;;;16.33;2.78;;;;;;;;;;5006343;28;20041;-60
2022/02/19 10:23:46;;;;;;;17.80;1.95;;;;;;;;;;5006857;28;20072;-60
2022/02/19 10:26:16;;;;;;;16.05;2.05;;;;;;;;;;4990176;28;20647;-62
2022/02/19 10:29:00;;;;;;;13.10;1.52;;;;;;;;;;5002684;28;20032;-60
2022/02/19 10:31:28;;;;;;;14.55;2.17;;;;;;;;;;5009216;28;20136;-62
2022/02/19 10:34:06;;;;;;;18.33;2.60;;;;;;;;;;4990604;28;20239;-61
2022/02/19 10:36:42;;;;;;;18.50;2.05;;;;;;;;;;5009019;28;20132;-61
2022/02/19 10:39:10;;;;;;;11.77;2.17;;;;;;;;;;5008423;28;20416;-60
2022/02/19 10:41:42;;;;;;;18.70;2.38;;;;;;;;;;4987742;28;20814;-60
2022/02/19 10:44:22;;;;;;;9.90;2.20;;;;;;;;;;5002182;28;20033;-63
2022/02/19 10:46:48;;;;;;;13.80;1.70;;;;;;;;;;4974560;28;20032;-59
2022/02/19 10:49:17;;;;;;;13.35;1.92;;;;;;;;;;4985787;28;20037;-60
2022/02/19 10:51:44;;;;;;;12.13;1.25;;;;;;;;;;5005156;28;20033;-60
2022/02/19 10:54:18;;;;;;;11.77;1.52;;;;;;;;;;4989492;28;20021;-59
2022/02/19 10:56:46;;;;;;;10.13;1.83;;;;;;;;;;5003561;28;20450;-59
2022/02/19 10:59:18;;;;;;;10.70;1.50;;;;;;;;;;4990988;28;20029;-59
2022/02/19 11:01:44;;;;;;;9.95;1.90;;;;;;;;;;5002886;28;20037;-60
2022/02/19 11:04:15;;;;;;;11.90;1.58;;;;;;;;;;4974591;28;20280;-61
2022/02/19 11:06:43;;;;;;;16.73;2.35;;;;;;;;;;5006260;28;20036;-59
2022/02/19 11:09:12;;;;;;;10.30;1.67;;;;;;;;;;4999473;28;20052;-61
2022/02/19 11:11:41;;;;;;;17.48;2.00;;;;;;;;;;5005531;28;20037;-61
2022/02/19 11:14:08;;;;;;;14.90;1.95;;;;;;;;;;4986785;28;20033;-61
2022/02/19 11:16:34;;;;;;;10.68;1.77;;;;;;;;;;4989681;28;20113;-60
2022/02/19 11:19:00;;;;;;;9.63;1.38;;;;;;;;;;5002348;28;20405;-63
2022/02/19 11:21:35;;;;;;;14.23;1.80;;;;;;;;;;4985119;28;20071;-61
2022/02/19 11:24:02;;;;;;;14.60;1.75;;;;;;;;;;4987363;28;20667;-61
2022/02/19 11:26:30;;;;;;;13.70;2.15;;;;;;;;;;5005912;28;20576;-59
2022/02/19 11:29:03;;;;;;;13.05;2.67;;;;;;;;;;4968838;28;20120;-60
2022/02/19 11:31:30;;;;;;;9.27;1.52;;;;;;;;;;4988489;28;20429;-61
2022/02/19 11:34:04;;;;;;;12.63;2.03;;;;;;;;;;5004961;28;20040;-61
2022/02/19 11:36:32;;;;;;;20.13;2.72;;;;;;;;;;5002175;28;20041;-62
2022/02/19 11:39:04;;;;;;;17.48;2.13;;;;;;;;;;5004215;28;20392;-61
2022/02/19 11:41:29;;;;;;;18.70;1.88;;;;;;;;;;5001732;28;20101;-61
2022/02/19 11:43:55;;;;;;;15.20;1.50;;;;;;;;;;5003780;28;20519;-60
2022/02/19 11:46:26;;;;;;;11.20;1.33;;;;;;;;;;4974768;28;20057;-61
2022/02/19 11:48:54;;;;;;;12.23;2.83;;;;;;;;;;4986017;28;20146;-59
2022/02/19 11:51:23;;;;;;;22.95;2.50;;;;;;;;;;4958218;28;20043;-60
2022/02/19 11:53:53;;;;;;;12.43;1.92;;;;;;;;;;5002094;28;20042;-62
2022/02/19 11:56:28;;;;;;;13.13;1.70;;;;;;;;;;5004754;28;20119;-63
2022/02/19 11:58:55;;;;;;;14.90;1.77;;;;;;;;;;4987594;28;20048;-61
2022/02/19 12:01:22;;;;;;;15.93;2.15;;;;;;;;;;5004846;28;20041;-60
2022/02/19 12:04:08;;;;;;;16.13;1.85;;;;;;;;;;4994671;28;20118;-62
2022/02/19 12:06:34;;;;;;;18.10;1.70;;;;;;;;;;5004778;28;20033;-59
2022/02/19 12:09:08;;;;;;;16.42;2.05;;;;;;;;;;4987592;28;20033;-62
2022/02/19 12:11:49;;;;;;;11.50;1.60;;;;;;;;;;5004524;28;20037;-61
2022/02/19 12:14:34;;;;;;;8.32;1.55;;;;;;;;;;5005048;28;20088;-59
2022/02/19 12:17:22;;;;;;;8.35;1.42;;;;;;;;;;4983658;28;20123;-62
2022/02/19 12:19:53;;;;;;;13.70;1.52;;;;;;;;;;5006140;28;20041;-60
2022/02/19 12:22:31;;;;;;;13.15;1.88;;;;;;;;;;5003733;28;20041;-61
2022/02/19 12:25:02;;;;;;;11.18;1.83;;;;;;;;;;5002333;28;20121;-59
2022/02/19 12:27:33;;;;;;;13.63;2.03;;;;;;;;;;5004278;28;20037;-58
2022/02/19 12:30:20;;;;;;;8.85;1.60;;;;;;;;;;5003542;28;20036;-59
2022/02/19 12:32:49;;;;;;;10.77;1.38;;;;;;;;;;5004965;28;20041;-59
2022/02/19 12:35:14;;;;;;;12.68;1.65;;;;;;;;;;5010262;28;20110;-60
2022/02/19 12:37:45;;;;;;;10.50;1.35;;;;;;;;;;5009931;28;20044;-61
2022/02/19 12:40:18;;;;;;;11.23;1.88;;;;;;;;;;5009125;28;20122;-60
2022/02/19 12:42:49;;;;;;;10.77;1.40;;;;;;;;;;5005587;28;20022;-62
2022/02/19 12:45:15;;;;;;;10.80;1.60;;;;;;;;;;5006906;28;20218;-60
2022/02/19 12:47:43;;;;;;;10.15;1.20;;;;;;;;;;5009259;28;21191;-60
2022/02/19 12:50:12;;;;;;;5.95;1.25;;;;;;;;;;5006010;28;20068;-61
2022/02/19 12:52:41;;;;;;;10.38;1.38;;;;;;;;;;5005034;28;20052;-60
2022/02/19 12:55:07;;;;;;;8.02;1.38;;;;;;;;;;4992788;28;20025;-60
2022/02/19 12:57:35;;;;;;;6.35;1.38;;;;;;;;;;4987209;28;20143;-59
2022/02/19 13:00:03;;;;;;;7.63;1.55;;;;;;;;;;4973505;28;20049;-60
2022/02/19 13:02:29;;;;;;;7.07;1.92;;;;;;;;;;5006926;28;21398;-61
2022/02/19 13:04:59;;;;;;;9.43;1.58;;;;;;;;;;5006316;28;20042;-60
2022/02/19 13:07:28;;;;;;;8.18;1.10;;;;;;;;;;5009124;28;20453;-60
2022/02/19 13:09:54;;;;;;;6.75;1.52;;;;;;;;;;5008220;28;20140;-59
2022/02/19 13:12:26;;;;;;;8.73;1.27;;;;;;;;;;4990044;28;20062;-59
2022/02/19 13:14:52;;;;;;;8.48;1.65;;;;;;;;;;5006378;28;20037;-60
2022/02/19 13:17:20;;;;;;;13.27;1.67;;;;;;;;;;5003344;28;20044;-61
2022/02/19 13:19:46;;;;;;;9.70;1.58;;;;;;;;;;4991004;28;20132;-61
2022/02/19 13:22:13;;;;;;;8.43;1.48;;;;;;;;;;4991806;28;20028;-59
2022/02/19 13:24:43;;;;;;;11.10;1.83;;;;;;;;;;4989647;28;20041;-60
2022/02/19 13:27:13;;;;;;;10.57;1.30;;;;;;;;;;4989909;28;20114;-60
2022/02/19 13:29:42;;;;;;;13.68;1.77;;;;;;;;;;4987441;28;20038;-59
2022/02/19 13:32:12;;;;;;;13.30;1.33;;;;;;;;;;5004910;28;20037;-60
2022/02/19 13:34:40;;;;;;;14.07;1.30;;;;;;;;;;5005766;28;20876;-61
2022/02/19 13:37:08;;;;;;;12.57;1.67;;;;;;;;;;4976216;28;20140;-60
2022/02/19 13:39:33;;;;;;;7.60;1.20;;;;;;;;;;4989509;28;20041;-61
2022/02/19 13:41:59;;;;;;;7.22;1.08;;;;;;;;;;4989978;28;20160;-59
2022/02/19 13:44:30;;;;;;;8.77;1.50;;;;;;;;;;5006157;28;20129;-60
2022/02/19 13:46:58;;;;;;;8.43;1.48;;;;;;;;;;5009192;28;20034;-60
2022/02/19 13:49:34;;;;;;;9.63;1.35;;;;;;;;;;4989139;28;20082;-61
2022/02/19 13:52:03;;;;;;;9.00;1.38;;;;;;;;;;5008429;28;20036;-58
2022/02/19 13:54:37;;;;;;;8.85;1.33;;;;;;;;;;5006051;28;20105;-62
2022/02/19 13:57:17;;;;;;;5.78;1.25;;;;;;;;;;5005057;28;20048;-59
2022/02/19 13:59:59;;;;;;;10.77;1.88;;;;;;;;;;5008145;28;20063;-59
2022/02/19 14:02:30;;;;;;;12.75;1.95;;;;;;;;;;4987498;28;20045;-60
2022/02/19 14:04:59;;;;;;;5.63;1.20;;;;;;;;;;4988756;28;20040;-59
2022/02/19 14:07:27;;;;;;;4.70;1.10;;;;;;;;;;5007346;28;22003;-59
2022/02/19 14:10:02;;;;;;;10.57;1.48;;;;;;;;;;5005093;28;20146;-60
2022/02/19 14:12:34;;;;;;;10.63;1.42;;;;;;;;;;5007844;28;20447;-60
2022/02/19 14:15:02;;;;;;;15.13;1.90;;;;;;;;;;4989191;28;20216;-60
2022/02/19 14:17:38;;;;;;;9.00;1.35;;;;;;;;;;5008942;28;20033;-60
2022/02/19 14:20:09;;;;;;;8.43;1.63;;;;;;;;;;5005227;28;20116;-59
2022/02/19 14:22:40;;;;;;;7.63;1.25;;;;;;;;;;4991513;28;20032;-59
2022/02/19 14:25:13;;;;;;;12.15;1.85;;;;;;;;;;5007099;28;20053;-60
2022/02/19 14:27:49;;;;;;;12.32;2.30;;;;;;;;;;5006476;28;20060;-60
2022/02/19 14:30:16;;;;;;;9.15;1.77;;;;;;;;;;5006085;28;20132;-59
2022/02/19 14:32:43;;;;;;;10.38;1.45;;;;;;;;;;4985777;28;20032;-58
2022/02/19 14:35:10;;;;;;;6.30;0.93;;;;;;;;;;5007280;28;20483;-60
2022/02/19 14:37:38;;;;;;;9.23;1.58;;;;;;;;;;5005592;28;20056;-60
2022/02/19 14:40:08;;;;;;;9.50;1.73;;;;;;;;;;4990258;28;20036;-60
2022/02/19 14:42:36;;;;;;;7.55;1.40;;;;;;;;;;5006370;28;20068;-60
2022/02/19 14:45:05;;;;;;;15.40;1.83;;;;;;;;;;4987082;28;20091;-60
2022/02/19 14:47:32;;;;;;;9.73;1.42;;;;;;;;;;5005677;28;20247;-61
2022/02/19 14:50:00;;;;;;;15.27;1.88;;;;;;;;;;4989945;28;20029;-60
2022/02/19 14:52:26;;;;;;;4.78;1.30;;;;;;;;;;4987298;28;20037;-61
2022/02/19 14:54:53;;;;;;;15.30;2.08;;;;;;;;;;5005792;28;20373;-60